sensor_id;sensor_type;location;lat;lon;timestamp;temperature;humidity
11764;DHT22;5939;56.522;14.950;2022-07-09T00:00:48;17.50;99.90
11764;DHT22;5939;56.522;14.950;2022-07-09T00:03:13;17.50;99.90
11764;DHT22;5939;56.522;14.950;2022-07-09T00:05:39;17.50;99.90
11764;DHT22;5939;56.522;14.950;2022-07-09T00:08:05;17.50;99.90
11764;DHT22;5939;56.522;14.950;2022-07-09T00:10:30;17.50;99.90
11764;DHT22;5939;56.522;14.950;2022-07-09T00:12:56;17.40;99.90
11764;DHT22;5939;56.522;14.950;2022-07-09T00:15:22;17.40;99.90
11764;DHT22;5939;56.522;14.950;2022-07-09T00:17:48;17.40;99.90
11764;DHT22;5939;56.522;14.950;2022-07-09T00:20:14;17.40;99.90
11764;DHT22;5939;56.522;14.950;2022-07-09T00:22:39;17.40;99.90
11764;DHT22;5939;56.522;14.950;2022-07-09T00:25:05;17.40;99.90
11764;DHT22;5939;56.522;14.950;2022-07-09T00:27:31;17.40;99.90
11764;DHT22;5939;56.522;14.950;2022-07-09T00:29:57;17.30;99.90
11764;DHT22;5939;56.522;14.950;2022-07-09T00:32:22;17.30;99.90
11764;DHT22;5939;56.522;14.950;2022-07-09T00:34:48;17.30;99.90
11764;DHT22;5939;56.522;14.950;2022-07-09T00:37:14;17.30;99.90
11764;DHT22;5939;56.522;14.950;2022-07-09T00:39:39;17.30;99.90
11764;DHT22;5939;56.522;14.950;2022-07-09T00:42:07;17.30;99.90
11764;DHT22;5939;56.522;14.950;2022-07-09T00:44:33;17.30;99.90
11764;DHT22;5939;56.522;14.950;2022-07-09T00:46:59;17.30;99.90
11764;DHT22;5939;56.522;14.950;2022-07-09T00:49:28;17.20;99.90
11764;DHT22;5939;56.522;14.950;2022-07-09T00:51:54;17.20;99.90
11764;DHT22;5939;56.522;14.950;2022-07-09T00:54:21;17.20;99.90
11764;DHT22;5939;56.522;14.950;2022-07-09T00:56:47;17.20;99.90
11764;DHT22;5939;56.522;14.950;2022-07-09T00:59:13;17.20;99.90
11764;DHT22;5939;56.522;14.950;2022-07-09T01:01:39;17.20;99.90
11764;DHT22;5939;56.522;14.950;2022-07-09T01:04:06;17.20;99.90
11764;DHT22;5939;56.522;14.950;2022-07-09T01:06:32;17.20;99.90
11764;DHT22;5939;56.522;14.950;2022-07-09T01:09:00;17.20;99.90
11764;DHT22;5939;56.522;14.950;2022-07-09T01:11:26;17.10;99.90
11764;DHT22;5939;56.522;14.950;2022-07-09T01:13:53;17.10;99.90
11764;DHT22;5939;56.522;14.950;2022-07-09T01:16:18;17.10;99.90
11764;DHT22;5939;56.522;14.950;2022-07-09T01:18:48;17.10;99.90
11764;DHT22;5939;56.522;14.950;2022-07-09T01:21:14;17.10;99.90
11764;DHT22;5939;56.522;14.950;2022-07-09T01:23:40;17.10;99.90
11764;DHT22;5939;56.522;14.950;2022-07-09T01:26:07;17.10;99.90
11764;DHT22;5939;56.522;14.950;2022-07-09T01:28:33;17.10;99.90
11764;DHT22;5939;56.522;14.950;2022-07-09T01:30:59;17.00;99.90
11764;DHT22;5939;56.522;14.950;2022-07-09T01:33:25;17.00;99.90
11764;DHT22;5939;56.522;14.950;2022-07-09T01:35:51;17.00;99.90
11764;DHT22;5939;56.522;14.950;2022-07-09T01:38:17;17.00;99.90
11764;DHT22;5939;56.522;14.950;2022-07-09T01:40:43;17.00;99.90
11764;DHT22;5939;56.522;14.950;2022-07-09T01:43:08;17.00;99.90
11764;DHT22;5939;56.522;14.950;2022-07-09T01:45:34;17.00;99.90
11764;DHT22;5939;56.522;14.950;2022-07-09T01:48:00;17.00;99.90
11764;DHT22;5939;56.522;14.950;2022-07-09T01:50:25;16.90;99.90
11764;DHT22;5939;56.522;14.950;2022-07-09T01:52:51;16.90;99.90
11764;DHT22;5939;56.522;14.950;2022-07-09T01:55:17;16.90;99.90
11764;DHT22;5939;56.522;14.950;2022-07-09T01:57:42;16.90;99.90
11764;DHT22;5939;56.522;14.950;2022-07-09T02:00:08;16.90;99.90
11764;DHT22;5939;56.522;14.950;2022-07-09T02:02:34;16.90;99.90
11764;DHT22;5939;56.522;14.950;2022-07-09T02:05:00;16.90;99.90
11764;DHT22;5939;56.522;14.950;2022-07-09T02:07:26;16.80;99.90
11764;DHT22;5939;56.522;14.950;2022-07-09T02:09:51;16.80;99.90
11764;DHT22;5939;56.522;14.950;2022-07-09T02:12:17;16.80;99.90
11764;DHT22;5939;56.522;14.950;2022-07-09T02:14:43;16.80;99.90
11764;DHT22;5939;56.522;14.950;2022-07-09T02:17:10;16.80;99.90
11764;DHT22;5939;56.522;14.950;2022-07-09T02:19:35;16.80;99.90
11764;DHT22;5939;56.522;14.950;2022-07-09T02:22:01;16.80;99.90
11764;DHT22;5939;56.522;14.950;2022-07-09T02:24:27;16.80;99.90
11764;DHT22;5939;56.522;14.950;2022-07-09T02:26:54;16.80;99.90
11764;DHT22;5939;56.522;14.950;2022-07-09T02:29:20;16.70;99.90
11764;DHT22;5939;56.522;14.950;2022-07-09T02:31:45;16.70;99.90
11764;DHT22;5939;56.522;14.950;2022-07-09T02:34:11;16.70;99.90
11764;DHT22;5939;56.522;14.950;2022-07-09T02:36:37;16.70;99.90
11764;DHT22;5939;56.522;14.950;2022-07-09T02:39:03;16.60;99.90
11764;DHT22;5939;56.522;14.950;2022-07-09T02:41:28;16.70;99.90
11764;DHT22;5939;56.522;14.950;2022-07-09T02:43:54;16.60;99.90
11764;DHT22;5939;56.522;14.950;2022-07-09T02:46:20;16.60;99.90
11764;DHT22;5939;56.522;14.950;2022-07-09T02:48:45;16.60;99.90
11764;DHT22;5939;56.522;14.950;2022-07-09T02:51:11;16.60;99.90
11764;DHT22;5939;56.522;14.950;2022-07-09T02:53:37;16.60;99.90
11764;DHT22;5939;56.522;14.950;2022-07-09T02:56:03;16.60;99.90
11764;DHT22;5939;56.522;14.950;2022-07-09T02:58:28;16.60;99.90
11764;DHT22;5939;56.522;14.950;2022-07-09T03:00:54;16.60;99.90
11764;DHT22;5939;56.522;14.950;2022-07-09T03:03:20;16.60;99.90
11764;DHT22;5939;56.522;14.950;2022-07-09T03:05:48;16.50;99.90
11764;DHT22;5939;56.522;14.950;2022-07-09T03:08:14;16.50;99.90
11764;DHT22;5939;56.522;14.950;2022-07-09T03:10:40;16.50;99.90
11764;DHT22;5939;56.522;14.950;2022-07-09T03:13:06;16.50;99.90
11764;DHT22;5939;56.522;14.950;2022-07-09T03:15:31;16.50;99.90
11764;DHT22;5939;56.522;14.950;2022-07-09T03:17:57;16.50;99.90
11764;DHT22;5939;56.522;14.950;2022-07-09T03:20:23;16.50;99.90
11764;DHT22;5939;56.522;14.950;2022-07-09T03:22:49;16.50;99.90
11764;DHT22;5939;56.522;14.950;2022-07-09T03:25:14;16.40;99.90
11764;DHT22;5939;56.522;14.950;2022-07-09T03:27:40;16.40;99.90
11764;DHT22;5939;56.522;14.950;2022-07-09T03:30:06;16.40;99.90
11764;DHT22;5939;56.522;14.950;2022-07-09T03:32:32;16.40;99.90
11764;DHT22;5939;56.522;14.950;2022-07-09T03:34:57;16.40;99.90
11764;DHT22;5939;56.522;14.950;2022-07-09T03:37:23;16.40;99.90
11764;DHT22;5939;56.522;14.950;2022-07-09T03:39:49;16.40;99.90
11764;DHT22;5939;56.522;14.950;2022-07-09T03:42:14;16.40;99.90
11764;DHT22;5939;56.522;14.950;2022-07-09T03:44:40;16.40;99.90
11764;DHT22;5939;56.522;14.950;2022-07-09T03:47:06;16.40;99.90
11764;DHT22;5939;56.522;14.950;2022-07-09T03:49:33;16.40;99.90
11764;DHT22;5939;56.522;14.950;2022-07-09T03:51:59;16.30;99.90
11764;DHT22;5939;56.522;14.950;2022-07-09T03:54:25;16.40;99.90
11764;DHT22;5939;56.522;14.950;2022-07-09T03:56:51;16.30;99.90
11764;DHT22;5939;56.522;14.950;2022-07-09T03:59:17;16.30;99.90
11764;DHT22;5939;56.522;14.950;2022-07-09T04:01:44;16.30;99.90
11764;DHT22;5939;56.522;14.950;2022-07-09T04:04:09;16.30;99.90
11764;DHT22;5939;56.522;14.950;2022-07-09T04:06:35;16.30;99.90
11764;DHT22;5939;56.522;14.950;2022-07-09T04:09:01;16.30;99.90
11764;DHT22;5939;56.522;14.950;2022-07-09T04:11:33;16.30;99.90
11764;DHT22;5939;56.522;14.950;2022-07-09T04:14:00;16.30;99.90
11764;DHT22;5939;56.522;14.950;2022-07-09T04:16:27;16.30;99.90
11764;DHT22;5939;56.522;14.950;2022-07-09T04:18:52;16.30;99.90
11764;DHT22;5939;56.522;14.950;2022-07-09T04:21:18;16.30;99.90
11764;DHT22;5939;56.522;14.950;2022-07-09T04:23:47;16.30;99.90
11764;DHT22;5939;56.522;14.950;2022-07-09T04:26:14;16.30;99.90
11764;DHT22;5939;56.522;14.950;2022-07-09T04:28:40;16.30;99.90
11764;DHT22;5939;56.522;14.950;2022-07-09T04:31:06;16.30;99.90
11764;DHT22;5939;56.522;14.950;2022-07-09T04:33:31;16.30;99.90
11764;DHT22;5939;56.522;14.950;2022-07-09T04:35:57;16.30;99.90
11764;DHT22;5939;56.522;14.950;2022-07-09T04:38:23;16.30;99.90
11764;DHT22;5939;56.522;14.950;2022-07-09T04:40:50;16.30;99.90
11764;DHT22;5939;56.522;14.950;2022-07-09T04:43:20;16.30;99.90
11764;DHT22;5939;56.522;14.950;2022-07-09T04:45:46;16.30;99.90
11764;DHT22;5939;56.522;14.950;2022-07-09T04:48:11;16.30;99.90
11764;DHT22;5939;56.522;14.950;2022-07-09T04:50:37;16.30;99.90
11764;DHT22;5939;56.522;14.950;2022-07-09T04:53:03;16.30;99.90
11764;DHT22;5939;56.522;14.950;2022-07-09T04:55:28;16.30;99.90
11764;DHT22;5939;56.522;14.950;2022-07-09T04:57:54;16.30;99.90
11764;DHT22;5939;56.522;14.950;2022-07-09T05:00:19;16.30;99.90
11764;DHT22;5939;56.522;14.950;2022-07-09T05:02:45;16.30;99.90
11764;DHT22;5939;56.522;14.950;2022-07-09T05:05:11;16.30;99.90
11764;DHT22;5939;56.522;14.950;2022-07-09T05:07:39;16.30;99.90
11764;DHT22;5939;56.522;14.950;2022-07-09T05:10:05;16.30;99.90
11764;DHT22;5939;56.522;14.950;2022-07-09T05:12:31;16.30;99.90
11764;DHT22;5939;56.522;14.950;2022-07-09T05:14:56;16.30;99.90
11764;DHT22;5939;56.522;14.950;2022-07-09T05:17:23;16.30;99.90
11764;DHT22;5939;56.522;14.950;2022-07-09T05:19:49;16.30;99.90
11764;DHT22;5939;56.522;14.950;2022-07-09T05:22:15;16.30;99.90
11764;DHT22;5939;56.522;14.950;2022-07-09T05:24:41;16.30;99.90
11764;DHT22;5939;56.522;14.950;2022-07-09T05:27:07;16.30;99.90
11764;DHT22;5939;56.522;14.950;2022-07-09T05:29:36;16.30;99.90
11764;DHT22;5939;56.522;14.950;2022-07-09T05:32:02;16.30;99.90
11764;DHT22;5939;56.522;14.950;2022-07-09T05:34:28;16.30;99.90
11764;DHT22;5939;56.522;14.950;2022-07-09T05:36:54;16.30;99.90
11764;DHT22;5939;56.522;14.950;2022-07-09T05:39:23;16.30;99.90
11764;DHT22;5939;56.522;14.950;2022-07-09T05:41:49;16.30;99.90
11764;DHT22;5939;56.522;14.950;2022-07-09T05:44:14;16.40;99.90
11764;DHT22;5939;56.522;14.950;2022-07-09T05:46:41;16.40;99.90
11764;DHT22;5939;56.522;14.950;2022-07-09T05:49:06;16.40;99.90
11764;DHT22;5939;56.522;14.950;2022-07-09T05:51:33;16.40;99.90
11764;DHT22;5939;56.522;14.950;2022-07-09T05:53:59;16.40;99.90
11764;DHT22;5939;56.522;14.950;2022-07-09T05:56:24;16.40;99.90
11764;DHT22;5939;56.522;14.950;2022-07-09T05:58:50;16.40;99.90
11764;DHT22;5939;56.522;14.950;2022-07-09T06:01:16;16.40;99.90
11764;DHT22;5939;56.522;14.950;2022-07-09T06:03:42;16.50;99.90
11764;DHT22;5939;56.522;14.950;2022-07-09T06:06:10;16.50;99.90
11764;DHT22;5939;56.522;14.950;2022-07-09T06:08:36;16.60;99.90
11764;DHT22;5939;56.522;14.950;2022-07-09T06:11:02;16.60;99.90
11764;DHT22;5939;56.522;14.950;2022-07-09T06:13:28;16.60;99.90
11764;DHT22;5939;56.522;14.950;2022-07-09T06:15:54;16.70;99.90
11764;DHT22;5939;56.522;14.950;2022-07-09T06:18:20;16.70;99.90
11764;DHT22;5939;56.522;14.950;2022-07-09T06:20:47;16.80;99.90
11764;DHT22;5939;56.522;14.950;2022-07-09T06:23:13;16.90;99.90
11764;DHT22;5939;56.522;14.950;2022-07-09T06:25:39;16.90;99.90
11764;DHT22;5939;56.522;14.950;2022-07-09T06:28:05;17.00;99.90
11764;DHT22;5939;56.522;14.950;2022-07-09T06:30:31;17.10;99.90
11764;DHT22;5939;56.522;14.950;2022-07-09T06:32:58;17.20;99.90
11764;DHT22;5939;56.522;14.950;2022-07-09T06:35:23;17.30;99.90
11764;DHT22;5939;56.522;14.950;2022-07-09T06:37:49;17.30;99.90
11764;DHT22;5939;56.522;14.950;2022-07-09T06:40:15;17.40;99.90
11764;DHT22;5939;56.522;14.950;2022-07-09T06:42:41;17.50;99.90
11764;DHT22;5939;56.522;14.950;2022-07-09T06:45:07;17.50;99.90
11764;DHT22;5939;56.522;14.950;2022-07-09T06:47:34;17.60;99.90
11764;DHT22;5939;56.522;14.950;2022-07-09T06:49:59;17.70;99.90
11764;DHT22;5939;56.522;14.950;2022-07-09T06:52:25;17.80;99.90
11764;DHT22;5939;56.522;14.950;2022-07-09T06:54:51;17.90;99.90
11764;DHT22;5939;56.522;14.950;2022-07-09T06:57:17;17.90;99.90
11764;DHT22;5939;56.522;14.950;2022-07-09T06:59:43;18.00;99.90
11764;DHT22;5939;56.522;14.950;2022-07-09T07:02:11;18.10;99.90
11764;DHT22;5939;56.522;14.950;2022-07-09T07:04:37;18.20;99.90
11764;DHT22;5939;56.522;14.950;2022-07-09T07:07:03;18.30;99.90
11764;DHT22;5939;56.522;14.950;2022-07-09T07:09:30;18.50;99.90
11764;DHT22;5939;56.522;14.950;2022-07-09T07:11:56;18.50;99.90
11764;DHT22;5939;56.522;14.950;2022-07-09T07:14:22;18.60;99.90
11764;DHT22;5939;56.522;14.950;2022-07-09T07:16:48;18.60;99.90
11764;DHT22;5939;56.522;14.950;2022-07-09T07:19:14;18.70;99.90
11764;DHT22;5939;56.522;14.950;2022-07-09T07:21:39;18.70;99.90
11764;DHT22;5939;56.522;14.950;2022-07-09T07:24:06;18.80;99.90
11764;DHT22;5939;56.522;14.950;2022-07-09T07:26:33;18.80;99.90
11764;DHT22;5939;56.522;14.950;2022-07-09T07:28:58;18.90;99.90
11764;DHT22;5939;56.522;14.950;2022-07-09T07:31:24;18.90;99.90
11764;DHT22;5939;56.522;14.950;2022-07-09T07:33:57;19.00;99.90
11764;DHT22;5939;56.522;14.950;2022-07-09T07:36:40;19.10;99.90
11764;DHT22;5939;56.522;14.950;2022-07-09T07:39:20;19.20;99.90
11764;DHT22;5939;56.522;14.950;2022-07-09T07:41:56;19.30;99.90
11764;DHT22;5939;56.522;14.950;2022-07-09T07:44:24;19.40;99.90
11764;DHT22;5939;56.522;14.950;2022-07-09T07:46:50;19.40;99.90
11764;DHT22;5939;56.522;14.950;2022-07-09T07:49:16;19.50;99.90
11764;DHT22;5939;56.522;14.950;2022-07-09T07:51:41;19.60;99.90
11764;DHT22;5939;56.522;14.950;2022-07-09T07:54:08;19.70;99.90
11764;DHT22;5939;56.522;14.950;2022-07-09T07:56:34;19.80;99.90
11764;DHT22;5939;56.522;14.950;2022-07-09T07:59:02;19.80;99.90
11764;DHT22;5939;56.522;14.950;2022-07-09T08:01:28;19.90;99.90
11764;DHT22;5939;56.522;14.950;2022-07-09T08:03:54;20.00;99.90
11764;DHT22;5939;56.522;14.950;2022-07-09T08:06:19;20.00;99.90
11764;DHT22;5939;56.522;14.950;2022-07-09T08:08:47;20.10;99.90
11764;DHT22;5939;56.522;14.950;2022-07-09T08:11:13;20.20;99.90
11764;DHT22;5939;56.522;14.950;2022-07-09T08:13:40;20.30;99.90
11764;DHT22;5939;56.522;14.950;2022-07-09T08:16:06;20.40;99.90
11764;DHT22;5939;56.522;14.950;2022-07-09T08:18:32;20.50;99.90
11764;DHT22;5939;56.522;14.950;2022-07-09T08:20:58;20.50;99.90
11764;DHT22;5939;56.522;14.950;2022-07-09T08:23:23;20.60;99.90
11764;DHT22;5939;56.522;14.950;2022-07-09T08:25:49;20.70;99.90
11764;DHT22;5939;56.522;14.950;2022-07-09T08:28:18;20.70;99.90
11764;DHT22;5939;56.522;14.950;2022-07-09T08:30:43;20.80;99.90
11764;DHT22;5939;56.522;14.950;2022-07-09T08:33:09;20.90;99.90
11764;DHT22;5939;56.522;14.950;2022-07-09T08:35:35;20.90;99.90
11764;DHT22;5939;56.522;14.950;2022-07-09T08:38:01;21.00;99.90
11764;DHT22;5939;56.522;14.950;2022-07-09T08:40:27;21.10;99.90
11764;DHT22;5939;56.522;14.950;2022-07-09T08:42:53;21.10;99.90
11764;DHT22;5939;56.522;14.950;2022-07-09T08:45:20;21.20;99.90
11764;DHT22;5939;56.522;14.950;2022-07-09T08:47:46;21.20;99.90
11764;DHT22;5939;56.522;14.950;2022-07-09T08:50:13;21.30;99.90
11764;DHT22;5939;56.522;14.950;2022-07-09T08:52:40;21.30;99.90
11764;DHT22;5939;56.522;14.950;2022-07-09T08:55:07;21.30;99.90
11764;DHT22;5939;56.522;14.950;2022-07-09T08:57:34;21.30;99.90
11764;DHT22;5939;56.522;14.950;2022-07-09T09:00:00;21.30;99.90
11764;DHT22;5939;56.522;14.950;2022-07-09T09:02:34;21.40;99.90
11764;DHT22;5939;56.522;14.950;2022-07-09T09:05:05;21.40;99.90
11764;DHT22;5939;56.522;14.950;2022-07-09T09:07:31;21.40;99.90
11764;DHT22;5939;56.522;14.950;2022-07-09T09:09:57;21.50;99.90
11764;DHT22;5939;56.522;14.950;2022-07-09T09:12:28;21.50;99.90
11764;DHT22;5939;56.522;14.950;2022-07-09T09:14:54;21.60;99.90
11764;DHT22;5939;56.522;14.950;2022-07-09T09:17:21;21.60;99.90
11764;DHT22;5939;56.522;14.950;2022-07-09T09:19:47;21.60;99.90
11764;DHT22;5939;56.522;14.950;2022-07-09T09:22:17;21.70;99.90
11764;DHT22;5939;56.522;14.950;2022-07-09T09:24:43;21.70;99.90
11764;DHT22;5939;56.522;14.950;2022-07-09T09:27:09;21.80;99.90
11764;DHT22;5939;56.522;14.950;2022-07-09T09:29:34;21.90;99.90
11764;DHT22;5939;56.522;14.950;2022-07-09T09:32:11;21.90;99.90
11764;DHT22;5939;56.522;14.950;2022-07-09T09:34:38;22.00;99.90
11764;DHT22;5939;56.522;14.950;2022-07-09T09:37:06;22.10;99.90
11764;DHT22;5939;56.522;14.950;2022-07-09T09:39:34;22.10;99.90
11764;DHT22;5939;56.522;14.950;2022-07-09T09:42:02;22.20;99.90
11764;DHT22;5939;56.522;14.950;2022-07-09T09:44:30;22.20;99.90
11764;DHT22;5939;56.522;14.950;2022-07-09T09:46:58;22.20;99.90
11764;DHT22;5939;56.522;14.950;2022-07-09T09:49:24;22.30;99.90
11764;DHT22;5939;56.522;14.950;2022-07-09T09:52:10;22.30;99.90
11764;DHT22;5939;56.522;14.950;2022-07-09T09:54:38;22.40;99.90
11764;DHT22;5939;56.522;14.950;2022-07-09T09:57:08;22.50;99.90
11764;DHT22;5939;56.522;14.950;2022-07-09T09:59:40;22.50;99.90
11764;DHT22;5939;56.522;14.950;2022-07-09T10:02:07;22.60;99.90
11764;DHT22;5939;56.522;14.950;2022-07-09T10:04:39;22.60;99.90
11764;DHT22;5939;56.522;14.950;2022-07-09T10:07:06;22.70;99.90
11764;DHT22;5939;56.522;14.950;2022-07-09T10:09:32;22.70;99.90
11764;DHT22;5939;56.522;14.950;2022-07-09T10:11:58;22.80;99.90
11764;DHT22;5939;56.522;14.950;2022-07-09T10:16:53;22.90;99.90
11764;DHT22;5939;56.522;14.950;2022-07-09T10:19:26;22.90;99.90
11764;DHT22;5939;56.522;14.950;2022-07-09T10:21:54;23.00;99.90
11764;DHT22;5939;56.522;14.950;2022-07-09T10:24:27;23.00;99.90
11764;DHT22;5939;56.522;14.950;2022-07-09T10:27:05;23.10;99.90
11764;DHT22;5939;56.522;14.950;2022-07-09T10:29:32;23.20;99.90
11764;DHT22;5939;56.522;14.950;2022-07-09T10:31:58;23.20;99.90
11764;DHT22;5939;56.522;14.950;2022-07-09T10:37:08;23.30;99.90
11764;DHT22;5939;56.522;14.950;2022-07-09T10:39:34;23.40;99.90
11764;DHT22;5939;56.522;14.950;2022-07-09T10:42:06;23.40;99.90
11764;DHT22;5939;56.522;14.950;2022-07-09T10:44:40;23.40;99.90
11764;DHT22;5939;56.522;14.950;2022-07-09T10:47:06;23.50;99.90
11764;DHT22;5939;56.522;14.950;2022-07-09T10:49:35;23.40;99.90
11764;DHT22;5939;56.522;14.950;2022-07-09T10:52:03;23.50;99.90
11764;DHT22;5939;56.522;14.950;2022-07-09T10:54:29;23.50;99.90
11764;DHT22;5939;56.522;14.950;2022-07-09T10:56:55;23.60;99.90
11764;DHT22;5939;56.522;14.950;2022-07-09T10:59:22;23.60;99.90
11764;DHT22;5939;56.522;14.950;2022-07-09T11:01:48;23.60;99.90
11764;DHT22;5939;56.522;14.950;2022-07-09T11:04:26;23.70;99.90
11764;DHT22;5939;56.522;14.950;2022-07-09T11:06:51;23.70;99.90
11764;DHT22;5939;56.522;14.950;2022-07-09T11:09:17;23.80;99.90
11764;DHT22;5939;56.522;14.950;2022-07-09T11:11:44;23.80;99.90
11764;DHT22;5939;56.522;14.950;2022-07-09T11:14:11;23.80;99.90
11764;DHT22;5939;56.522;14.950;2022-07-09T11:16:37;23.90;99.90
11764;DHT22;5939;56.522;14.950;2022-07-09T11:19:16;23.90;99.90
11764;DHT22;5939;56.522;14.950;2022-07-09T11:21:42;23.90;99.90
11764;DHT22;5939;56.522;14.950;2022-07-09T11:24:18;24.00;99.90
11764;DHT22;5939;56.522;14.950;2022-07-09T11:26:48;24.00;99.90
11764;DHT22;5939;56.522;14.950;2022-07-09T11:29:16;24.10;99.90
11764;DHT22;5939;56.522;14.950;2022-07-09T11:31:51;24.10;99.90
11764;DHT22;5939;56.522;14.950;2022-07-09T11:34:18;24.20;99.90
11764;DHT22;5939;56.522;14.950;2022-07-09T11:36:51;24.20;99.90
11764;DHT22;5939;56.522;14.950;2022-07-09T11:39:27;24.20;99.90
11764;DHT22;5939;56.522;14.950;2022-07-09T11:41:54;24.20;99.90
11764;DHT22;5939;56.522;14.950;2022-07-09T11:44:37;24.30;99.90
11764;DHT22;5939;56.522;14.950;2022-07-09T11:47:11;24.30;99.90
11764;DHT22;5939;56.522;14.950;2022-07-09T11:49:44;24.30;99.90
11764;DHT22;5939;56.522;14.950;2022-07-09T11:52:22;24.30;99.90
11764;DHT22;5939;56.522;14.950;2022-07-09T11:54:59;24.40;99.90
11764;DHT22;5939;56.522;14.950;2022-07-09T11:57:26;24.40;99.90
11764;DHT22;5939;56.522;14.950;2022-07-09T11:59:53;24.40;99.90
11764;DHT22;5939;56.522;14.950;2022-07-09T12:02:30;24.50;99.90
11764;DHT22;5939;56.522;14.950;2022-07-09T12:04:56;24.50;99.90
11764;DHT22;5939;56.522;14.950;2022-07-09T12:07:22;24.50;99.90
11764;DHT22;5939;56.522;14.950;2022-07-09T12:10:07;24.60;99.90
11764;DHT22;5939;56.522;14.950;2022-07-09T12:12:35;24.60;99.90
11764;DHT22;5939;56.522;14.950;2022-07-09T12:15:02;24.60;99.90
11764;DHT22;5939;56.522;14.950;2022-07-09T12:17:29;24.60;99.90
11764;DHT22;5939;56.522;14.950;2022-07-09T12:19:56;24.60;99.90
11764;DHT22;5939;56.522;14.950;2022-07-09T12:22:22;24.60;99.90
11764;DHT22;5939;56.522;14.950;2022-07-09T12:24:51;24.60;99.90
11764;DHT22;5939;56.522;14.950;2022-07-09T12:27:18;24.70;99.90
11764;DHT22;5939;56.522;14.950;2022-07-09T12:29:45;24.70;99.90
11764;DHT22;5939;56.522;14.950;2022-07-09T12:32:11;24.70;99.90
11764;DHT22;5939;56.522;14.950;2022-07-09T12:34:37;24.70;99.90
11764;DHT22;5939;56.522;14.950;2022-07-09T12:37:03;24.70;99.90
11764;DHT22;5939;56.522;14.950;2022-07-09T12:39:29;24.70;99.90
11764;DHT22;5939;56.522;14.950;2022-07-09T12:41:55;24.70;99.90
11764;DHT22;5939;56.522;14.950;2022-07-09T12:44:21;24.70;99.90
11764;DHT22;5939;56.522;14.950;2022-07-09T12:46:47;24.70;99.90
11764;DHT22;5939;56.522;14.950;2022-07-09T12:49:13;24.60;99.90
11764;DHT22;5939;56.522;14.950;2022-07-09T12:51:39;24.60;99.90
11764;DHT22;5939;56.522;14.950;2022-07-09T12:54:04;24.60;99.90
11764;DHT22;5939;56.522;14.950;2022-07-09T12:56:30;24.60;99.90
11764;DHT22;5939;56.522;14.950;2022-07-09T12:58:56;24.60;99.90
11764;DHT22;5939;56.522;14.950;2022-07-09T13:01:22;24.60;99.90
11764;DHT22;5939;56.522;14.950;2022-07-09T13:03:47;24.60;99.90
11764;DHT22;5939;56.522;14.950;2022-07-09T13:06:13;24.60;99.90
11764;DHT22;5939;56.522;14.950;2022-07-09T13:08:58;24.60;99.90
11764;DHT22;5939;56.522;14.950;2022-07-09T13:11:24;24.60;99.90
11764;DHT22;5939;56.522;14.950;2022-07-09T13:13:50;24.60;99.90
11764;DHT22;5939;56.522;14.950;2022-07-09T13:16:16;24.60;99.90
11764;DHT22;5939;56.522;14.950;2022-07-09T13:18:41;24.50;99.90
11764;DHT22;5939;56.522;14.950;2022-07-09T13:21:07;24.50;99.90
11764;DHT22;5939;56.522;14.950;2022-07-09T13:23:33;24.50;99.90
11764;DHT22;5939;56.522;14.950;2022-07-09T13:25:59;24.50;99.90
11764;DHT22;5939;56.522;14.950;2022-07-09T13:28:25;24.50;99.90
11764;DHT22;5939;56.522;14.950;2022-07-09T13:30:51;24.40;99.90
11764;DHT22;5939;56.522;14.950;2022-07-09T13:33:16;24.40;99.90
11764;DHT22;5939;56.522;14.950;2022-07-09T13:35:42;24.30;99.90
11764;DHT22;5939;56.522;14.950;2022-07-09T13:38:08;24.30;99.90
11764;DHT22;5939;56.522;14.950;2022-07-09T13:40:34;24.30;99.90
11764;DHT22;5939;56.522;14.950;2022-07-09T13:43:00;24.20;99.90
11764;DHT22;5939;56.522;14.950;2022-07-09T13:45:26;24.20;99.90
11764;DHT22;5939;56.522;14.950;2022-07-09T13:47:55;24.10;99.90
11764;DHT22;5939;56.522;14.950;2022-07-09T13:50:21;24.10;99.90
11764;DHT22;5939;56.522;14.950;2022-07-09T13:52:47;24.10;99.90
11764;DHT22;5939;56.522;14.950;2022-07-09T13:55:13;24.00;99.90
11764;DHT22;5939;56.522;14.950;2022-07-09T13:57:39;24.00;99.90
11764;DHT22;5939;56.522;14.950;2022-07-09T14:00:06;23.90;99.90
11764;DHT22;5939;56.522;14.950;2022-07-09T14:02:32;23.90;99.90
11764;DHT22;5939;56.522;14.950;2022-07-09T14:05:02;23.80;99.90
11764;DHT22;5939;56.522;14.950;2022-07-09T14:07:29;23.80;99.90
11764;DHT22;5939;56.522;14.950;2022-07-09T14:09:55;23.70;99.90
11764;DHT22;5939;56.522;14.950;2022-07-09T14:12:21;23.70;99.90
11764;DHT22;5939;56.522;14.950;2022-07-09T14:14:50;23.60;99.90
11764;DHT22;5939;56.522;14.950;2022-07-09T14:17:16;23.60;99.90
11764;DHT22;5939;56.522;14.950;2022-07-09T14:19:42;23.50;99.90
11764;DHT22;5939;56.522;14.950;2022-07-09T14:22:08;23.50;99.90
11764;DHT22;5939;56.522;14.950;2022-07-09T14:24:34;23.40;99.90
11764;DHT22;5939;56.522;14.950;2022-07-09T14:27:00;23.40;99.90
11764;DHT22;5939;56.522;14.950;2022-07-09T14:29:26;23.40;99.90
11764;DHT22;5939;56.522;14.950;2022-07-09T14:31:52;23.30;99.90
11764;DHT22;5939;56.522;14.950;2022-07-09T14:34:18;23.30;99.90
11764;DHT22;5939;56.522;14.950;2022-07-09T14:36:44;23.20;99.90
11764;DHT22;5939;56.522;14.950;2022-07-09T14:39:10;23.20;99.90
11764;DHT22;5939;56.522;14.950;2022-07-09T14:41:36;23.20;99.90
11764;DHT22;5939;56.522;14.950;2022-07-09T14:44:03;23.10;99.90
11764;DHT22;5939;56.522;14.950;2022-07-09T14:46:29;23.10;99.90
11764;DHT22;5939;56.522;14.950;2022-07-09T14:48:54;23.00;99.90
11764;DHT22;5939;56.522;14.950;2022-07-09T14:51:20;23.00;99.90
11764;DHT22;5939;56.522;14.950;2022-07-09T14:53:46;22.90;99.90
11764;DHT22;5939;56.522;14.950;2022-07-09T14:56:12;22.90;99.90
11764;DHT22;5939;56.522;14.950;2022-07-09T14:58:38;22.90;99.90
11764;DHT22;5939;56.522;14.950;2022-07-09T15:01:05;22.90;99.90
11764;DHT22;5939;56.522;14.950;2022-07-09T15:03:31;22.80;99.90
11764;DHT22;5939;56.522;14.950;2022-07-09T15:05:57;22.80;99.90
11764;DHT22;5939;56.522;14.950;2022-07-09T15:08:23;22.70;99.90
11764;DHT22;5939;56.522;14.950;2022-07-09T15:10:48;22.70;99.90
11764;DHT22;5939;56.522;14.950;2022-07-09T15:13:14;22.60;99.90
11764;DHT22;5939;56.522;14.950;2022-07-09T15:15:40;22.60;99.90
11764;DHT22;5939;56.522;14.950;2022-07-09T15:18:06;22.60;99.90
11764;DHT22;5939;56.522;14.950;2022-07-09T15:20:32;22.50;99.90
11764;DHT22;5939;56.522;14.950;2022-07-09T15:22:59;22.50;99.90
11764;DHT22;5939;56.522;14.950;2022-07-09T15:25:26;22.50;99.90
11764;DHT22;5939;56.522;14.950;2022-07-09T15:27:52;22.40;99.90
11764;DHT22;5939;56.522;14.950;2022-07-09T15:30:18;22.40;99.90
11764;DHT22;5939;56.522;14.950;2022-07-09T15:32:47;22.30;99.90